createdAt,value
2022-12-17T00:01:06.572Z,89.30
2022-12-17T00:03:52.840Z,110.72
2022-12-17T00:06:38.409Z,84.80
2022-12-17T00:09:23.584Z,94.03
2022-12-17T00:12:09.913Z,101.57
2022-12-17T00:14:55.107Z,94.30
2022-12-17T00:17:41.859Z,98.68
2022-12-17T00:20:27.554Z,100.88
2022-12-17T00:23:23.757Z,103.35
2022-12-17T00:26:13.413Z,108.63
2022-12-17T00:28:59.551Z,94.57
2022-12-17T00:31:46.521Z,102.43
2022-12-17T00:34:32.018Z,99.88
2022-12-17T00:37:18.069Z,97.20
2022-12-17T00:40:03.589Z,111.18
2022-12-17T00:42:48.782Z,104.05
2022-12-17T00:45:34.398Z,109.95
2022-12-17T00:48:19.516Z,123.78
2022-12-17T00:51:05.041Z,120.68
2022-12-17T00:53:50.189Z,110.28
2022-12-17T00:56:35.346Z,122.53
2022-12-17T00:59:20.493Z,109.65
2022-12-17T01:02:06.025Z,118.25
2022-12-17T01:05:01.987Z,108.55
2022-12-17T01:07:47.774Z,123.20
2022-12-17T01:10:33.186Z,124.07
2022-12-17T01:13:18.581Z,123.60
2022-12-17T01:16:06.757Z,116.95
2022-12-17T01:18:52.036Z,126.68
2022-12-17T01:21:51.052Z,124.32
2022-12-17T01:24:37.548Z,118.53
2022-12-17T01:27:24.254Z,106.07
2022-12-17T01:30:09.764Z,128.82
2022-12-17T01:32:54.874Z,105.85
2022-12-17T01:35:40.198Z,104.57
2022-12-17T01:38:37.045Z,109.97
2022-12-17T01:41:23.762Z,117.05
2022-12-17T01:44:10.172Z,115.60
2022-12-17T01:46:59.802Z,100.50
2022-12-17T01:49:46.486Z,106.45
2022-12-17T01:52:34.853Z,115.40
2022-12-17T01:55:22.945Z,106.63
2022-12-17T01:58:08.407Z,116.85
2022-12-17T02:00:53.698Z,119.43
2022-12-17T02:03:39.409Z,105.10
2022-12-17T02:06:47.263Z,108.45
2022-12-17T02:09:44.381Z,117.70
2022-12-17T02:12:31.057Z,100.53
2022-12-17T02:15:42.053Z,104.25
2022-12-17T02:18:35.609Z,109.47
2022-12-17T02:21:21.984Z,105.28
2022-12-17T02:24:26.742Z,102.72
2022-12-17T02:27:15.031Z,102.03
2022-12-17T02:30:03.932Z,104.75
2022-12-17T02:32:53.058Z,116.55
2022-12-17T02:35:46.457Z,96.53
2022-12-17T02:38:43.911Z,125.15
2022-12-17T02:41:47.572Z,120.70
2022-12-17T02:44:38.172Z,114.13
2022-12-17T02:47:27.838Z,133.20
2022-12-17T02:50:14.169Z,122.22
2022-12-17T02:53:03.751Z,115.35
2022-12-17T02:55:49.124Z,122.82
2022-12-17T02:58:36.483Z,122.30
2022-12-17T03:01:22.065Z,131.65
2022-12-17T03:04:07.681Z,113.43
2022-12-17T03:06:53.086Z,115.97
2022-12-17T03:09:39.425Z,141.02
2022-12-17T03:12:25.194Z,114.18
2022-12-17T03:15:10.341Z,119.57
2022-12-17T03:17:55.904Z,113.43
2022-12-17T03:20:41.165Z,126.63
2022-12-17T03:23:28.999Z,128.30
2022-12-17T03:26:19.739Z,109.03
2022-12-17T03:29:05.301Z,113.75
2022-12-17T03:31:50.802Z,100.05
2022-12-17T03:34:36.121Z,114.55
2022-12-17T03:37:25.273Z,108.57
2022-12-17T03:40:10.518Z,95.50
2022-12-17T03:42:55.825Z,99.07
2022-12-17T03:45:41.035Z,121.95
2022-12-17T03:48:30.902Z,99.68
2022-12-17T03:51:21.099Z,103.82
2022-12-17T03:54:06.449Z,111.45
2022-12-17T03:56:52.157Z,95.20
2022-12-17T03:59:37.815Z,96.25
2022-12-17T04:02:23.733Z,105.72
2022-12-17T04:05:16.575Z,98.65
2022-12-17T04:08:05.310Z,106.53
2022-12-17T04:10:50.556Z,109.85
2022-12-17T04:13:40.509Z,108.63
2022-12-17T04:16:27.302Z,94.93
2022-12-17T04:19:12.640Z,102.45
2022-12-17T04:21:58.884Z,105.90
2022-12-17T04:24:44.455Z,109.68
2022-12-17T04:27:29.905Z,107.05
2022-12-17T04:30:15.136Z,93.65
2022-12-17T04:33:00.305Z,98.70
2022-12-17T04:35:45.648Z,98.32
2022-12-17T04:38:38.508Z,98.22
2022-12-17T04:44:11.525Z,87.82
2022-12-17T04:46:57.075Z,101.57
2022-12-17T04:49:42.538Z,105.55
2022-12-17T04:52:28.330Z,105.20
2022-12-17T04:55:13.662Z,96.93
2022-12-17T04:57:58.908Z,107.00
2022-12-17T05:00:44.137Z,108.05
2022-12-17T05:03:32.401Z,120.95
2022-12-17T05:06:18.517Z,95.30
2022-12-17T05:09:04.283Z,94.75
2022-12-17T05:11:49.811Z,104.30
2022-12-17T05:14:35.322Z,97.85
2022-12-17T05:17:20.804Z,99.55
2022-12-17T05:20:06.002Z,101.75
2022-12-17T05:22:54.170Z,97.93
2022-12-17T05:25:39.341Z,103.15
2022-12-17T05:28:24.606Z,97.03
2022-12-17T05:31:11.775Z,98.05
2022-12-17T05:33:57.499Z,103.22
2022-12-17T05:36:43.345Z,104.82
2022-12-17T05:39:28.901Z,115.35
2022-12-17T05:42:14.292Z,119.45
2022-12-17T05:44:59.512Z,102.10
2022-12-17T05:47:44.630Z,112.93
2022-12-17T05:50:29.907Z,112.13
2022-12-17T05:53:25.837Z,119.65
2022-12-17T05:56:16.640Z,105.85
2022-12-17T05:59:01.839Z,101.07
2022-12-17T06:01:47.138Z,103.65
2022-12-17T06:04:32.553Z,105.03
2022-12-17T06:07:17.694Z,107.85
2022-12-17T06:10:03.066Z,103.80
2022-12-17T06:12:48.276Z,107.95
2022-12-17T06:15:33.568Z,107.57
2022-12-17T06:18:18.613Z,114.25
2022-12-17T06:21:04.539Z,110.88
2022-12-17T06:23:49.857Z,114.50
2022-12-17T06:26:35.102Z,108.85
2022-12-17T06:29:20.313Z,117.88
2022-12-17T06:32:05.440Z,123.25
2022-12-17T06:34:50.919Z,132.75
2022-12-17T06:37:36.190Z,122.97
2022-12-17T06:40:22.011Z,112.40
2022-12-17T06:43:12.018Z,125.65
2022-12-17T06:45:57.573Z,105.70
2022-12-17T06:48:42.771Z,107.22
2022-12-17T06:51:27.833Z,119.97
2022-12-17T06:54:13.038Z,113.22
2022-12-17T06:56:58.579Z,112.38
2022-12-17T06:59:43.661Z,113.75
2022-12-17T07:02:29.490Z,120.05
2022-12-17T07:05:14.929Z,106.22
2022-12-17T07:08:00.323Z,110.70
2022-12-17T07:10:45.654Z,101.15
2022-12-17T07:13:30.813Z,99.75
2022-12-17T07:16:16.094Z,99.30
2022-12-17T07:19:01.537Z,96.18
2022-12-17T07:21:46.564Z,111.82
2022-12-17T07:24:32.067Z,106.25
2022-12-17T07:27:17.167Z,109.80
2022-12-17T07:30:02.382Z,97.65
2022-12-17T07:32:47.726Z,104.32
2022-12-17T07:35:33.068Z,96.05
2022-12-17T07:38:23.452Z,90.50
2022-12-17T07:41:11.385Z,93.93
2022-12-17T07:43:56.726Z,84.25
2022-12-17T07:46:42.448Z,84.75
2022-12-17T07:49:27.922Z,72.53
2022-12-17T07:52:13.223Z,80.13
2022-12-17T07:54:58.677Z,84.32
2022-12-17T07:57:44.152Z,76.65
2022-12-17T08:00:30.284Z,79.80
2022-12-17T08:03:19.408Z,75.35
2022-12-17T08:06:05.147Z,78.90
2022-12-17T08:08:50.213Z,77.82
2022-12-17T08:11:35.352Z,73.13
2022-12-17T08:14:20.667Z,79.28
2022-12-17T08:17:06.350Z,87.28
2022-12-17T08:19:51.861Z,85.30
2022-12-17T08:22:37.096Z,96.28
2022-12-17T08:25:22.352Z,81.90
2022-12-17T08:28:15.614Z,92.95
2022-12-17T08:31:08.462Z,83.78
2022-12-17T08:33:54.335Z,92.15
2022-12-17T08:36:39.599Z,92.10
2022-12-17T08:39:24.993Z,88.57
2022-12-17T08:42:10.239Z,88.65
2022-12-17T08:44:55.576Z,92.00
2022-12-17T08:47:42.301Z,100.78
2022-12-17T08:50:27.966Z,93.03
2022-12-17T08:53:20.528Z,104.28
2022-12-17T08:56:06.043Z,94.13
2022-12-17T08:59:11.161Z,99.20
2022-12-17T09:01:56.629Z,94.07
2022-12-17T09:04:41.904Z,89.78
2022-12-17T09:07:27.568Z,101.25
2022-12-17T09:10:12.873Z,88.40
2022-12-17T09:13:04.195Z,97.07
2022-12-17T09:15:51.639Z,101.50
2022-12-17T09:18:38.481Z,102.30
2022-12-17T09:21:24.028Z,97.90
2022-12-17T09:24:09.336Z,95.38
2022-12-17T09:26:55.287Z,104.28
2022-12-17T09:29:40.481Z,101.50
2022-12-17T09:32:25.740Z,91.22
2022-12-17T09:35:10.980Z,107.47
2022-12-17T09:37:56.517Z,102.07
2022-12-17T09:40:43.462Z,92.57
2022-12-17T09:44:03.358Z,107.75
2022-12-17T09:47:01.099Z,105.90
2022-12-17T09:49:47.792Z,101.32
2022-12-17T09:52:43.821Z,97.65
2022-12-17T09:55:37.934Z,90.05
2022-12-17T09:58:23.352Z,99.03
2022-12-17T10:01:08.903Z,103.63
2022-12-17T10:03:55.051Z,87.40
2022-12-17T10:06:45.863Z,95.28
2022-12-17T10:09:37.816Z,98.68
2022-12-17T10:12:34.695Z,104.93
2022-12-17T10:15:20.556Z,95.90
2022-12-17T10:18:05.873Z,92.85
2022-12-17T10:20:56.645Z,103.35
2022-12-17T10:23:47.435Z,100.45
2022-12-17T10:26:41.334Z,85.15
2022-12-17T10:29:34.294Z,96.07
2022-12-17T10:35:15.647Z,89.50
2022-12-17T10:38:00.973Z,86.38
2022-12-17T10:40:50.020Z,79.15
2022-12-17T10:43:47.345Z,86.55
2022-12-17T10:47:14.525Z,87.43
2022-12-17T10:49:59.733Z,78.55
2022-12-17T10:52:51.145Z,85.40
2022-12-17T10:55:46.597Z,81.47
2022-12-17T10:58:38.519Z,77.15
2022-12-17T11:01:28.708Z,89.78
2022-12-17T11:04:18.405Z,85.55
2022-12-17T11:07:11.973Z,80.88
2022-12-17T11:10:09.746Z,75.38
2022-12-17T11:13:15.862Z,78.88
2022-12-17T11:16:14.594Z,74.45
2022-12-17T11:19:17.477Z,77.05
2022-12-17T11:22:07.387Z,70.70
2022-12-17T11:25:00.863Z,78.70
2022-12-17T11:27:51.653Z,81.88
2022-12-17T11:30:37.158Z,79.28
2022-12-17T11:33:37.011Z,83.35
2022-12-17T11:36:38.690Z,74.95
2022-12-17T11:39:39.855Z,69.65
2022-12-17T11:42:50.277Z,74.55
2022-12-17T11:45:51.651Z,74.15
2022-12-17T11:48:57.004Z,70.85
2022-12-17T11:52:06.849Z,69.88
2022-12-17T11:54:56.000Z,68.75
2022-12-17T11:57:48.272Z,71.78
2022-12-17T12:00:38.493Z,78.38
2022-12-17T12:03:26.946Z,75.05
2022-12-17T12:06:16.742Z,73.50
2022-12-17T12:09:30.089Z,73.97
2022-12-17T12:15:31.859Z,70.15
2022-12-17T12:18:17.199Z,75.55
2022-12-17T12:21:17.386Z,71.82
2022-12-17T12:24:30.229Z,76.57
2022-12-17T12:27:42.349Z,74.85
2022-12-17T12:30:38.000Z,87.00
2022-12-17T12:33:53.358Z,81.47
2022-12-17T12:36:42.321Z,64.80
2022-12-17T12:39:32.005Z,69.40
2022-12-17T12:42:35.555Z,74.20
2022-12-17T12:45:44.863Z,74.00
2022-12-17T12:49:06.738Z,72.05
2022-12-17T12:51:56.257Z,85.07
2022-12-17T12:54:43.634Z,79.90
2022-12-17T12:57:56.306Z,80.32
2022-12-17T13:00:58.086Z,76.78
2022-12-17T13:03:57.746Z,75.93
2022-12-17T13:06:42.593Z,76.70
2022-12-17T13:09:15.256Z,66.88
2022-12-17T13:14:49.972Z,64.45
2022-12-17T13:17:16.657Z,72.82
2022-12-17T13:19:47.358Z,71.90
2022-12-17T13:22:23.678Z,78.43
2022-12-17T13:24:57.270Z,68.72
2022-12-17T13:27:38.113Z,78.35
2022-12-17T13:30:17.099Z,60.72
2022-12-17T13:33:07.880Z,83.85
2022-12-17T13:35:58.734Z,79.35
2022-12-17T13:38:31.611Z,74.43
2022-12-17T13:41:13.711Z,76.47
2022-12-17T13:43:50.958Z,82.25
2022-12-17T13:46:26.297Z,90.50
2022-12-17T13:48:57.717Z,74.68
2022-12-17T13:51:27.646Z,84.70
2022-12-17T13:54:02.663Z,92.30
2022-12-17T13:56:37.244Z,83.05
2022-12-17T13:59:09.186Z,92.57
2022-12-17T14:04:30.615Z,96.00
2022-12-17T14:07:04.855Z,94.60
2022-12-17T14:09:42.768Z,85.70
2022-12-17T14:12:23.726Z,93.53
2022-12-17T14:14:57.844Z,101.70
2022-12-17T14:17:42.213Z,95.63
2022-12-17T14:20:17.457Z,94.53
2022-12-17T14:22:51.332Z,96.82
2022-12-17T14:25:24.227Z,100.65
2022-12-17T14:28:28.013Z,114.28
2022-12-17T14:34:11.634Z,93.88
2022-12-17T14:36:43.558Z,90.72
2022-12-17T14:39:23.853Z,104.82
2022-12-17T14:42:09.327Z,91.35
2022-12-17T14:44:42.077Z,96.47
2022-12-17T14:47:21.914Z,92.47
2022-12-17T14:50:02.938Z,98.95
2022-12-17T14:52:50.946Z,100.85
2022-12-17T14:55:33.171Z,90.07
2022-12-17T14:58:11.842Z,89.85
2022-12-17T15:00:40.291Z,102.35
2022-12-17T15:03:11.612Z,79.95
2022-12-17T15:05:38.447Z,88.68
2022-12-17T15:08:05.806Z,100.93
2022-12-17T15:10:32.654Z,87.40
2022-12-17T15:12:59.369Z,87.15
2022-12-17T15:15:26.116Z,84.20
2022-12-17T15:17:53.199Z,77.70
2022-12-17T15:20:21.625Z,84.80
2022-12-17T15:22:48.338Z,91.90
2022-12-17T15:25:18.300Z,88.35
2022-12-17T15:27:46.330Z,89.97
2022-12-17T15:30:17.570Z,83.95
2022-12-17T15:32:45.242Z,86.32
2022-12-17T15:35:13.313Z,102.55
2022-12-17T15:37:40.060Z,108.25
2022-12-17T15:40:07.613Z,99.05
2022-12-17T15:42:52.781Z,100.00
2022-12-17T15:45:19.478Z,98.25
2022-12-17T15:47:46.225Z,102.30
2022-12-17T15:50:12.839Z,105.93
2022-12-17T15:52:39.572Z,107.47
2022-12-17T15:55:06.683Z,101.40
2022-12-17T15:57:33.354Z,104.05
2022-12-17T16:00:00.080Z,104.82
2022-12-17T16:02:26.982Z,106.22
2022-12-17T16:04:53.815Z,111.72
2022-12-17T16:07:20.510Z,101.63
2022-12-17T16:09:47.245Z,114.38
2022-12-17T16:12:13.989Z,102.30
2022-12-17T16:14:40.706Z,116.47
2022-12-17T16:17:07.416Z,116.80
2022-12-17T16:19:34.270Z,109.32
2022-12-17T16:22:00.928Z,104.47
2022-12-17T16:24:27.587Z,106.50
2022-12-17T16:26:56.224Z,102.63
2022-12-17T16:29:24.996Z,107.15
2022-12-17T16:31:51.679Z,97.60
2022-12-17T16:34:18.523Z,118.57
2022-12-17T16:36:45.255Z,109.50
2022-12-17T16:39:17.292Z,100.20
2022-12-17T16:41:44.515Z,105.53
2022-12-17T16:44:11.560Z,107.45
2022-12-17T16:46:41.301Z,113.78
2022-12-17T16:49:13.975Z,114.82
2022-12-17T16:51:41.281Z,109.65
2022-12-17T16:54:10.439Z,100.32
2022-12-17T16:56:40.427Z,101.30
2022-12-17T16:59:08.532Z,108.40
2022-12-17T17:01:36.934Z,100.07
2022-12-17T17:04:05.713Z,83.90
2022-12-17T17:06:34.207Z,105.25
2022-12-17T17:09:04.214Z,98.72
2022-12-17T17:11:30.951Z,100.03
2022-12-17T17:13:57.645Z,110.47
2022-12-17T17:16:24.896Z,108.63
2022-12-17T17:18:52.601Z,113.25
2022-12-17T17:21:19.242Z,99.55
2022-12-17T17:23:46.786Z,102.28
2022-12-17T17:26:14.522Z,107.32
2022-12-17T17:28:41.819Z,94.60
2022-12-17T17:31:11.601Z,106.13
2022-12-17T17:33:42.980Z,109.60
2022-12-17T17:36:12.113Z,113.20
2022-12-17T17:38:40.782Z,112.93
2022-12-17T17:41:11.101Z,106.68
2022-12-17T17:43:37.967Z,105.28
2022-12-17T17:46:10.476Z,116.15
2022-12-17T17:51:08.448Z,94.18
2022-12-17T17:53:36.310Z,103.47
2022-12-17T17:56:14.719Z,112.97
2022-12-17T17:58:43.836Z,119.82
2022-12-17T18:01:12.777Z,121.80
2022-12-17T18:03:39.644Z,106.60
2022-12-17T18:06:08.087Z,99.22
2022-12-17T18:08:37.314Z,108.30
2022-12-17T18:11:06.656Z,105.50
2022-12-17T18:13:52.134Z,103.97
2022-12-17T18:16:19.487Z,104.28
2022-12-17T18:18:46.393Z,110.28
2022-12-17T18:21:17.930Z,112.45
2022-12-17T18:23:45.025Z,109.15
2022-12-17T18:26:16.415Z,112.15
2022-12-17T18:28:43.773Z,108.07
2022-12-17T18:31:16.819Z,104.68
2022-12-17T18:33:45.789Z,110.22
2022-12-17T18:36:31.466Z,107.90
2022-12-17T18:39:00.877Z,107.85
2022-12-17T18:41:46.587Z,100.25
2022-12-17T18:44:14.218Z,104.28
2022-12-17T18:46:40.982Z,120.80
2022-12-17T18:49:11.301Z,102.35
2022-12-17T18:51:41.443Z,85.53
2022-12-17T18:54:12.794Z,111.05
2022-12-17T18:57:00.547Z,108.00
2022-12-17T18:59:29.258Z,103.45
2022-12-17T19:01:56.515Z,96.47
2022-12-17T19:04:24.372Z,97.63
2022-12-17T19:06:53.343Z,93.88
2022-12-17T19:09:24.863Z,103.85
2022-12-17T19:11:52.909Z,118.80
2022-12-17T19:14:22.008Z,102.10
2022-12-17T19:16:50.247Z,100.95
2022-12-17T19:19:17.691Z,94.03
2022-12-17T19:21:44.349Z,91.75
2022-12-17T19:24:15.775Z,81.75
2022-12-17T19:26:43.490Z,105.55
2022-12-17T19:29:13.198Z,104.28
2022-12-17T19:31:40.345Z,100.85
2022-12-17T19:34:10.343Z,93.07
2022-12-17T19:36:38.417Z,79.13
2022-12-17T19:39:11.219Z,83.00
2022-12-17T19:41:38.080Z,89.13
2022-12-17T19:44:07.578Z,95.15
2022-12-17T19:46:35.755Z,90.32
2022-12-17T19:49:03.350Z,97.63
2022-12-17T19:51:31.625Z,102.28
2022-12-17T19:54:01.963Z,88.45
2022-12-17T19:56:34.918Z,89.93
2022-12-17T19:59:06.941Z,90.38
2022-12-17T20:01:36.697Z,84.20
2022-12-17T20:04:05.064Z,81.15
2022-12-17T20:06:34.937Z,77.72
2022-12-17T20:09:03.537Z,73.53
2022-12-17T20:11:33.215Z,71.93
2022-12-17T20:14:01.684Z,73.60
2022-12-17T20:16:30.278Z,69.97
2022-12-17T20:19:00.223Z,68.68
2022-12-17T20:21:27.309Z,80.47
2022-12-17T20:23:54.190Z,76.90
2022-12-17T20:26:20.828Z,75.05
2022-12-17T20:28:47.435Z,82.60
2022-12-17T20:31:15.006Z,88.20
2022-12-17T20:33:42.099Z,78.82
2022-12-17T20:36:12.171Z,88.38
2022-12-17T20:38:39.517Z,85.30
2022-12-17T20:41:11.057Z,92.53
2022-12-17T20:43:38.599Z,85.22
2022-12-17T20:46:06.397Z,79.75
2022-12-17T20:48:33.134Z,81.18
2022-12-17T20:51:03.693Z,81.85
2022-12-17T20:53:30.947Z,78.43
2022-12-17T20:56:12.143Z,83.88
2022-12-17T20:58:40.357Z,78.03
2022-12-17T21:01:16.741Z,83.05
2022-12-17T21:03:43.517Z,88.45
2022-12-17T21:06:16.431Z,72.38
2022-12-17T21:08:49.663Z,83.65
2022-12-17T21:11:22.488Z,85.68
2022-12-17T21:13:49.461Z,87.45
2022-12-17T21:16:22.134Z,79.95
2022-12-17T21:18:48.889Z,88.22
2022-12-17T21:21:18.342Z,88.47
2022-12-17T21:23:46.953Z,86.57
2022-12-17T21:26:15.233Z,84.90
2022-12-17T21:28:45.057Z,83.82
2022-12-17T21:31:22.137Z,83.97
2022-12-17T21:33:50.258Z,86.60
2022-12-17T21:36:19.770Z,102.97
2022-12-17T21:38:47.004Z,95.97
2022-12-17T21:41:16.386Z,89.10
2022-12-17T21:43:43.254Z,104.97
2022-12-17T21:46:11.234Z,105.47
2022-12-17T21:48:42.158Z,93.80
2022-12-17T21:51:11.298Z,106.18
2022-12-17T21:53:42.289Z,92.57
2022-12-17T21:56:19.152Z,93.95
2022-12-17T21:58:46.990Z,99.65
2022-12-17T22:01:20.004Z,98.90
2022-12-17T22:03:53.576Z,111.70
2022-12-17T22:06:23.943Z,96.57
2022-12-17T22:08:54.534Z,107.50
2022-12-17T22:11:26.566Z,97.70
2022-12-17T22:14:07.414Z,102.47
2022-12-17T22:16:39.024Z,99.13
2022-12-17T22:19:07.098Z,101.07
2022-12-17T22:21:35.771Z,112.30
2022-12-17T22:24:03.536Z,86.63
2022-12-17T22:26:30.553Z,97.28
2022-12-17T22:28:57.358Z,109.45
2022-12-17T22:31:42.566Z,95.68
2022-12-17T22:35:23.152Z,102.93
2022-12-17T22:40:15.932Z,93.85
2022-12-17T22:43:58.806Z,91.65
2022-12-17T22:44:43.118Z,96.68
2022-12-17T22:45:40.976Z,93.20
2022-12-17T22:48:12.720Z,99.70
2022-12-17T22:50:44.636Z,102.88
2022-12-17T22:53:26.596Z,102.78
2022-12-17T22:55:53.503Z,112.90
2022-12-17T22:58:21.207Z,107.57
2022-12-17T23:00:48.093Z,104.68
2022-12-17T23:03:14.948Z,100.40
2022-12-17T23:05:41.971Z,106.97
2022-12-17T23:08:08.742Z,99.22
2022-12-17T23:10:35.422Z,99.63
2022-12-17T23:13:02.046Z,95.55
2022-12-17T23:15:36.865Z,97.43
2022-12-17T23:18:06.226Z,103.30
2022-12-17T23:20:34.752Z,111.82
2022-12-17T23:23:01.800Z,129.82
2022-12-17T23:25:29.225Z,104.68
2022-12-17T23:27:56.082Z,115.35
2022-12-17T23:30:22.745Z,116.15
2022-12-17T23:32:50.617Z,93.38
2022-12-17T23:35:17.289Z,96.70
2022-12-17T23:37:44.085Z,92.85
2022-12-17T23:40:11.637Z,106.95
2022-12-17T23:42:39.199Z,118.30
2022-12-17T23:45:07.042Z,101.43
2022-12-17T23:47:34.014Z,106.97
2022-12-17T23:50:00.660Z,89.43
2022-12-17T23:52:27.440Z,101.28
2022-12-17T23:54:54.116Z,101.60
2022-12-17T23:57:20.730Z,91.60
2022-12-17T23:59:47.377Z,84.60
